Terminal Aerodrome Forecast
Issued by NWS Memphis, TN

Home | Current Version | Previous Version | Text Only | Print | Product List | Glossary On
Versions: 1 2 3 4 5 6 7 8 9 10 11 12 13 14 15
000
FTUS44 KMEG 012300
TAFMKL
TAF
KMKL 012336Z 0200/0224 17003KT P6SM SCT150
     FM021000 16005KT P6SM BKN040
     FM021400 18008KT P6SM VCSH SCT025 BKN040
     FM021800 19010KT P6SM VCTS SCT035CB BKN050=

USA.gov is the U.S. government's official web portal to all federal, state and local government web resources and services.